This is the latest recevied weather packets stored in our database for station/object BM2MWA-13. If no packets are shown the sender has not sent any weather packets the latest 10 day(s).
| Time | Temp. | Humidity | Pressure | Rain* | Wind** | Luminosity | Snow |
|---|---|---|---|---|---|---|---|
| 1778114823 | 25.56° C | 77% | 1009.7 hPa | 0 mm | - | - | - |
| 1778114223 | 25° C | 79% | 1009.8 hPa | 0 mm | - | - | - |
| 1778113624 | 25° C | 78% | 1009.9 hPa | 0 mm | - | - | - |
| 1778113024 | 25° C | 77% | 1010 hPa | 0 mm | - | - | - |
| 1778112423 | 24.44° C | 77% | 1010 hPa | 0 mm | - | - | - |
| 1778111823 | 24.44° C | 77% | 1009.9 hPa | 0 mm | - | - | - |
| 1778111223 | 24.44° C | 80% | 1009.9 hPa | 0 mm | - | - | - |
| 1778110623 | 23.89° C | 80% | 1010 hPa | 0 mm | - | - | - |
| 1778110023 | 23.33° C | 82% | 1010 hPa | 0 mm | - | - | - |
| 1778109424 | 22.78° C | 84% | 1010 hPa | 0 mm | - | - | - |
| 1778108823 | 22.78° C | 84% | 1009.8 hPa | 0 mm | - | - | - |
| 1778108223 | 22.78° C | 86% | 1009.6 hPa | 0 mm | - | - | - |
| 1778107623 | 22.22° C | 88% | 1009.6 hPa | 0 mm | - | - | - |
| 1778107023 | 22.22° C | 88% | 1009.4 hPa | 0 mm | - | - | - |
| 1778106424 | 22.22° C | 89% | 1009.3 hPa | 0 mm | - | - | - |
| 1778105823 | 21.67° C | 93% | 1009.3 hPa | 0 mm | - | - | - |
| 1778105223 | 21.11° C | 93% | 1008.9 hPa | 0 mm | - | - | - |
| 1778104623 | 21.11° C | 93% | 1008.8 hPa | 0 mm | - | - | - |
| 1778104024 | 21.11° C | 94% | 1008.7 hPa | 0 mm | - | - | - |
| 1778103423 | 21.67° C | 93% | 1008.7 hPa | 0 mm | - | - | - |
| 1778102824 | 21.67° C | 92% | 1008.5 hPa | 0 mm | - | - | - |
| 1778102223 | 21.67° C | 92% | 1008.5 hPa | 0 mm | - | - | - |
| 1778101625 | 21.67° C | 91% | 1008.5 hPa | 0 mm | - | - | - |
| 1778101023 | 21.67° C | 90% | 1008.3 hPa | 0 mm | - | - | - |
| 1778100424 | 21.67° C | 89% | 1008.2 hPa | 0 mm | - | - | - |
* Rain latest hour (hover to see other rain measurements)
** Current wind speed in m/s (hover to see current wind gust speed)